RÉSULTATS    Trail Urbain d'Orléans - Édition du 30/11/2014


Vous pouvez changer la distance ici.

Vous pouvez changer la distance ici.

Classement PDF Général Classement PDF Alphabétique /results/<span class='glyphicon glyphicon-picture'></span> Classement Temps Réel - Temps Puce

424 participants - 90 Femmes - 334 Hommes
75 licenciés (18%) - 349 non-licenciés (82%)

Temps moyen : 00:57:20




Pos. Temps Nom - Prénom Club Dossard Catégorie km/h
356 01:04:25 KALLA Caroline CFO 2263 SEF (22 / 30) 11.1
372 01:05:51 DOUCET Sarah 2007 SEF (23 / 30) 10.9
373 01:05:51 MENANTEAU Carole 2047 SEF (24 / 30) 10.9
385 01:07:46 JOUANNEAU Aurelie 2172 SEF (25 / 30) 10.6
386 01:07:58 MALHERE Celia 764 SEF (26 / 30) 10.5
393 01:08:22 DROZD Marie ange CAISSE D'EPARGNE 2121 SEF (27 / 30) 10.5
403 01:09:20 MARKIEWICZ Aline 2127 SEF (28 / 30) 10.3
404 01:09:24 GENEVIER Vanessa 141 SEF (29 / 30) 10.3
105 00:52:12 CHAMAILLARD Maryline 2075 SEF (3 / 30) 13.7
424 01:21:33 L'HEUDE Margaux 802 SEF (30 / 30) 8.8
114 00:52:42 LEFRANC Florence 2090 SEF (4 / 30) 13.6
190 00:56:01 DEDEWANOU Myriam ECO CJF 2377 SEF (5 / 30) 12.8
194 00:56:06 TOURAULT Marie anne OTC 45 2144 SEF (6 / 30) 12.8
204 00:56:34 GUERIN Celine USM OLIVET 2350 SEF (7 / 30) 12.7
213 00:56:53 MOREAU Isabelle 734 SEF (8 / 30) 12.6
225 00:57:19 JEANNIN Chloe 2282 SEF (9 / 30) 12.5
1 00:38:00 ABDELLAOUI Mohamed LMA 45 2369 SEM (1 / 110) 18.9
23 00:45:55 HEURTEL Yohan AS FLEURY LES AUBRAIS SARAN AT 2223 SEM (10 / 110) 15.6
319 01:02:02 MALHAIRE Fabien 364 SEM (100 / 110) 11.6
329 01:02:42 DEVAINON Gregory 2200 SEM (101 / 110) 11.4
331 01:02:53 GAUTHIER Jerome 2060 SEM (102 / 110) 11.4
340 01:03:39 JEUDI Thomas 2298 SEM (103 / 110) 11.3
351 01:04:00 GANA Jean eudes 2067 SEM (104 / 110) 11.2
358 01:04:46 BOYER Victorien 779 SEM (105 / 110) 11.1
366 01:05:29 KIREIS Corentin 944 SEM (106 / 110) 10.9